This is the latest recevied weather packets stored in our database for station/object N2WH. If no packets are shown the sender has not sent any weather packets the latest 10 day(s).
| Time | Temp. | Humidity | Pressure | Rain* | Wind** | Luminosity | Snow |
|---|---|---|---|---|---|---|---|
| 1778006148 | 28.33° C | 37% | 1009.7 hPa | 0 mm | - | 142 W/m² | - |
| 1778005846 | 28.89° C | 35% | 1009.8 hPa | 0 mm | - | 728 W/m² | - |
| 1778005541 | 29.44° C | 34% | 1009.7 hPa | 0 mm | - | 732 W/m² | - |
| 1778005238 | 28.33° C | 36% | 1009.7 hPa | 0 mm | - | 689 W/m² | - |
| 1778004935 | 27.78° C | 38% | 1009.6 hPa | 0 mm | - | 637 W/m² | - |
| 1778004633 | 27.22° C | 39% | 1010 hPa | 0 mm | - | 611 W/m² | - |
| 1778004328 | 27.78° C | 38% | 1010.2 hPa | 0 mm | - | 586 W/m² | - |
| 1778004026 | 27.22° C | 39% | 1010.2 hPa | 0 mm | - | 644 W/m² | - |
| 1778003720 | 28.33° C | 37% | 1009.8 hPa | 0 mm | - | 735 W/m² | - |
| 1778003418 | 28.33° C | 38% | 1010.2 hPa | 0 mm | - | 720 W/m² | - |
| 1778003115 | 27.78° C | 43% | 1010.3 hPa | 0 mm | - | 670 W/m² | - |
| 1778002811 | 27.78° C | 42% | 1010.3 hPa | 0 mm | - | 703 W/m² | - |
| 1778002508 | 27.22° C | 41% | 1010.3 hPa | 0 mm | - | 731 W/m² | - |
| 1778002204 | 27.78° C | 39% | 1010.4 hPa | 0 mm | - | 690 W/m² | - |
| 1778001903 | 28.33° C | 41% | 1010.4 hPa | 0 mm | - | 700 W/m² | - |
| 1778001597 | 27.22° C | 42% | 1010.5 hPa | 0 mm | - | 721 W/m² | - |
| 1778001294 | 27.78° C | 43% | 1010.6 hPa | 0 mm | - | 264 W/m² | - |
| 1778000990 | 27.22° C | 42% | 1010.5 hPa | 0 mm | - | 748 W/m² | - |
| 1778000687 | 27.22° C | 41% | 1010.7 hPa | 0 mm | - | 742 W/m² | - |
| 1778000383 | 26.67° C | 45% | 1010.5 hPa | 0 mm | - | 727 W/m² | - |
| 1778000079 | 26.67° C | 43% | 1010.6 hPa | 0 mm | - | 721 W/m² | - |
| 1777999774 | 26.11° C | 44% | 1010.8 hPa | 0 mm | - | 724 W/m² | - |
| 1777999471 | 26.11° C | 45% | 1010.8 hPa | 0 mm | - | 704 W/m² | - |
| 1777999169 | 26.11° C | 46% | 1010.8 hPa | 0 mm | - | 700 W/m² | - |
| 1777998868 | 26.67° C | 44% | 1010.9 hPa | 0 mm | - | 711 W/m² | - |
* Rain latest hour (hover to see other rain measurements)
** Current wind speed in m/s (hover to see current wind gust speed)